Kings Point — WDH9083 — position and weather

sailwx.info

Track history (hours):
 
Tides and Currents Weather Stations Pressure Air Temp Water Temp Dewpoint Dewpoint Depression Visibility Wind Speed Wind Dir Waves Ship Positions

Kings Point

Owner: Vane Line Bunkering, Inc., Philadelphia, PA. More information available from US FCC via Universal Licensing System and Coast Guard Vessel Documentation Center.

Last reported at 2017-Nov-20 00:30 UTC. Time now 2017-Nov-20 02:01 UTC.
Position N 40°38' W 074°12'.

Length 33 m; draft 3 m.

Type: Tug. MMSI: 338329000.

Date/timePositionNaut miles runAvg speedWind from/ knotsBaromVisibWave heightAir tempDewpointWater temp
2017-Nov-20 00:30N 40°38' W 074°12'0 0.0
2017-Nov-20 00:00N 40°38' W 074°12'0 0.0
2017-Nov-19 23:30N 40°38' W 074°12'0 0.0
2017-Nov-19 23:00N 40°38' W 074°12'0 0.0
2017-Nov-19 22:30N 40°38' W 074°12'0 0.0
2017-Nov-19 21:59N 40°38' W 074°12'0 0.0
2017-Nov-19 21:30N 40°38' W 074°12'0 0.0
2017-Nov-19 20:47N 40°38' W 074°12'0 0.0
2017-Nov-19 20:30N 40°38' W 074°12'0 0.0
2017-Nov-19 19:58N 40°38' W 074°12'0 0.0
2017-Nov-19 19:30N 40°38' W 074°12'0 0.0
2017-Nov-19 19:00N 40°38' W 074°12'0 0.0
2017-Nov-19 18:30N 40°38' W 074°12'0 0.0
2017-Nov-19 18:00N 40°38' W 074°12'0 0.0
2017-Nov-19 17:30N 40°38' W 074°12'0 0.0
2017-Nov-19 17:00N 40°38' W 074°12'0 0.0
2017-Nov-19 16:30N 40°38' W 074°12'0 0.0
2017-Nov-19 16:00N 40°38' W 074°12'0 0.0
2017-Nov-19 15:30N 40°38' W 074°12'1 2.4
2017-Nov-19 15:00N 40°39' W 074°11'3 5.2
2017-Nov-19 14:30N 40°40' W 074°08'1 2.1
2017-Nov-19 14:00N 40°41' W 074°09'2 4.5
2017-Nov-19 13:30N 40°39' W 074°09'2 3.8
2017-Nov-19 13:00N 40°39' W 074°06'1 2.1
2017-Nov-19 12:30N 40°39' W 074°05'1 2.2
2017-Nov-19 12:00N 40°40' W 074°04'1 2.2
2017-Nov-19 11:30N 40°40' W 074°03'3 6.1
2017-Nov-19 11:00N 40°39' W 074°06'4 8.3
2017-Nov-19 10:30N 40°38' W 074°12'3 2.8
2017-Nov-19 09:35N 40°36' W 074°12'0 0.0
2017-Nov-19 09:30N 40°36' W 074°12'0 0.0
2017-Nov-19 08:58N 40°36' W 074°12'1 2.8
2017-Nov-19 08:30N 40°34' W 074°13'3 3.8
2017-Nov-19 07:44N 40°32' W 074°15'1 0.5
2017-Nov-19 05:19N 40°33' W 074°14'0 0.2
2017-Nov-19 05:00N 40°33' W 074°14'0 0.3
2017-Nov-19 04:29N 40°33' W 074°14'0 0.1
2017-Nov-19 01:44N 40°33' W 074°14'3 7.4
2017-Nov-19 01:23N 40°35' W 074°12'1 2.5
2017-Nov-19 01:00N 40°36' W 074°12'1 3.0
2017-Nov-19 00:30N 40°38' W 074°12'3 6.5
2017-Nov-19 00:00N 40°39' W 074°08'4 8.5
2017-Nov-18 23:30N 40°39' W 074°02'2 3.7
2017-Nov-18 23:00N 40°40' W 074°00'0 0.6
2017-Nov-18 22:30N 40°40' W 074°00'0 0.0
2017-Nov-18 22:00N 40°40' W 074°00'0 0.0
2017-Nov-18 21:30N 40°40' W 074°00'2 3.1
2017-Nov-18 21:00N 40°40' W 074°02'1 1.3
2017-Nov-18 20:30N 40°40' W 074°03'2 4.3
2017-Nov-18 20:00N 40°40' W 074°00'0 0.5
2017-Nov-18 19:30N 40°40' W 074°00'2 3.6
2017-Nov-18 19:00N 40°42' W 074°00'510.0
2017-Nov-18 18:29N 40°46' W 073°57'3 6.8
2017-Nov-18 17:59N 40°48' W 073°53'4 8.8
2017-Nov-18 17:30N 40°48' W 073°47'2 0.1
2017-Nov-17 23:51N 40°50' W 073°46'1 0.8
2017-Nov-17 21:57N 40°49' W 073°46'0 0.1
2017-Nov-17 20:57N 40°49' W 073°46'0 0.0
2017-Nov-17 19:00N 40°49' W 073°46'0 0.0
2017-Nov-17 17:36N 40°49' W 073°46'0 0.1
2017-Nov-17 17:30N 40°49' W 073°46'0 0.0
2017-Nov-17 16:51N 40°49' W 073°46'0 0.0
2017-Nov-17 15:24N 40°49' W 073°46'0 0.0
2017-Nov-17 14:03N 40°49' W 073°46'0 0.1
2017-Nov-17 13:51N 40°49' W 073°46'0 0.0
2017-Nov-17 13:21N 40°49' W 073°46'0 0.0
2017-Nov-17 12:57N 40°49' W 073°46'0 0.1
2017-Nov-17 11:27N 40°49' W 073°46'0 0.1
2017-Nov-17 10:47N 40°49' W 073°46'0 0.1
2017-Nov-17 10:30N 40°49' W 073°46'0 0.0
2017-Nov-17 10:00N 40°49' W 073°46'0 0.0
2017-Nov-17 09:25N 40°49' W 073°46'0 0.1
2017-Nov-17 08:57N 40°49' W 073°46'2 3.8
2017-Nov-17 08:30N 40°48' W 073°49'4 8.3
2017-Nov-17 08:00N 40°48' W 073°54'3 6.1
2017-Nov-17 07:30N 40°46' W 073°57'2 4.6
2017-Nov-17 07:00N 40°44' W 073°58'2 4.9
2017-Nov-17 06:30N 40°42' W 074°00'2 4.5
2017-Nov-17 06:00N 40°40' W 074°02'0 0.0
2017-Nov-17 05:30N 40°40' W 074°02'0 0.0
2017-Nov-17 05:00N 40°40' W 074°02'0 0.0
2017-Nov-17 04:30N 40°40' W 074°02'0 0.1
2017-Nov-17 04:00N 40°40' W 074°02'0 0.0
2017-Nov-17 03:30N 40°40' W 074°02'0 0.1
2017-Nov-17 03:00N 40°40' W 074°02'2 4.6
2017-Nov-17 02:30N 40°39' W 074°04'4 8.3
2017-Nov-17 02:00N 40°39' W 074°10'3 6.0
2017-Nov-17 01:30N 40°36' W 074°12'4 0.7
2017-Nov-16 19:53N 40°33' W 074°15'1 0.3
2017-Nov-16 16:42N 40°33' W 074°14'1 2.3
2017-Nov-16 16:23N 40°33' W 074°15'0 0.0
2017-Nov-16 15:59N 40°33' W 074°15'0 0.0
2017-Nov-16 15:15N 40°33' W 074°15'0 0.0
2017-Nov-16 14:52N 40°33' W 074°15'0 0.0
2017-Nov-16 14:30N 40°33' W 074°15'0 0.0
2017-Nov-16 13:51N 40°33' W 074°15'0 0.2
2017-Nov-16 13:27N 40°33' W 074°15'4 0.5
2017-Nov-16 06:47N 40°36' W 074°12'2 8.8
2017-Nov-16 06:30N 40°38' W 074°12'4 8.3
2017-Nov-16 06:00N 40°39' W 074°06'4 8.9
2017-Nov-16 05:30N 40°41' W 074°01'5 9.8
2017-Nov-16 05:00N 40°45' W 073°58'5 9.1
2017-Nov-16 04:29N 40°48' W 073°53'4 8.3
2017-Nov-16 03:57N 40°48' W 073°47'2 0.1
2017-Nov-15 01:41N 40°50' W 073°46'2 6.9
2017-Nov-15 01:28N 40°49' W 073°47'3 5.5
2017-Nov-15 01:00N 40°48' W 073°50'3 6.5
2017-Nov-15 00:30N 40°48' W 073°55'4 7.3
2017-Nov-15 00:00N 40°45' W 073°58'4 7.9
2017-Nov-14 23:30N 40°42' W 074°00'4 8.2
2017-Nov-14 23:00N 40°39' W 074°04'2 3.1
2017-Nov-14 22:30N 40°39' W 074°06'0 0.7
2017-Nov-14 22:00N 40°39' W 074°07'1 2.1
2017-Nov-14 21:30N 40°39' W 074°06'2 4.9
2017-Nov-14 21:00N 40°40' W 074°03'2 3.4
2017-Nov-14 20:30N 40°40' W 074°01'1 1.1
2017-Nov-14 20:00N 40°40' W 074°00'0 0.0
2017-Nov-14 19:30N 40°40' W 074°00'0 0.0
2017-Nov-14 19:00N 40°40' W 074°00'0 0.0
2017-Nov-14 18:30N 40°40' W 074°00'0 0.0
2017-Nov-14 18:00N 40°40' W 074°00'0 0.0
2017-Nov-14 17:30N 40°40' W 074°00'0 0.0
2017-Nov-14 17:00N 40°40' W 074°00'0 0.0
2017-Nov-14 16:30N 40°40' W 074°00'0 0.1
2017-Nov-14 16:00N 40°40' W 074°00'0 0.5
2017-Nov-14 15:30N 40°40' W 074°00'2 3.9
2017-Nov-14 15:00N 40°39' W 074°03'2 4.7
2017-Nov-14 14:30N 40°40' W 074°05'0 0.0
2017-Nov-14 14:00N 40°40' W 074°05'0 0.0
2017-Nov-14 13:30N 40°40' W 074°05'0 0.0
2017-Nov-14 13:00N 40°40' W 074°05'0 0.0
2017-Nov-14 12:30N 40°40' W 074°05'0 0.0
2017-Nov-14 12:00N 40°40' W 074°05'0 0.0
2017-Nov-14 11:30N 40°40' W 074°05'0 0.0
2017-Nov-14 11:00N 40°40' W 074°05'0 0.0
2017-Nov-14 10:30N 40°40' W 074°05'1 2.1
2017-Nov-14 10:00N 40°39' W 074°04'2 3.5
2017-Nov-14 09:30N 40°39' W 074°06'0 0.9
2017-Nov-14 09:00N 40°39' W 074°06'3 5.3
2017-Nov-14 08:30N 40°40' W 074°03'1 2.7
2017-Nov-14 08:00N 40°40' W 074°01'1 1.2
2017-Nov-14 07:30N 40°40' W 074°00'0 0.0
2017-Nov-14 07:00N 40°40' W 074°00'0 0.8
2017-Nov-14 06:30N 40°40' W 074°01'1 1.3
2017-Nov-14 06:00N 40°40' W 074°00'0 0.0
2017-Nov-14 05:30N 40°40' W 074°00'1 1.4
2017-Nov-14 05:00N 40°40' W 074°01'2 3.9
2017-Nov-14 04:30N 40°39' W 074°03'3 5.1
2017-Nov-14 04:00N 40°39' W 074°07'2 4.8
2017-Nov-14 03:30N 40°40' W 074°04'0 0.9
2017-Nov-14 03:00N 40°40' W 074°04'4 7.0
2017-Nov-14 02:30N 40°40' W 074°09'0 0.2
2017-Nov-14 02:00N 40°40' W 074°09'2 3.1
2017-Nov-14 01:30N 40°41' W 074°09'0 0.0
2017-Nov-14 01:00N 40°41' W 074°09'0 0.0
2017-Nov-14 00:30N 40°41' W 074°09'0 0.0
2017-Nov-14 00:00N 40°41' W 074°09'0 0.0
2017-Nov-13 23:29N 40°41' W 074°09'0 0.0
2017-Nov-13 23:00N 40°41' W 074°09'1 1.0
2017-Nov-13 22:29N 40°41' W 074°09'2 5.0
2017-Nov-13 22:00N 40°39' W 074°08'18 0.6
2017-Nov-12 16:40N 40°48' W 073°48'1 8.0
2017-Nov-12 16:30N 40°48' W 073°50'4 6.7
2017-Nov-12 15:57N 40°47' W 073°55'3 5.9
2017-Nov-12 15:30N 40°45' W 073°57'3 6.4
2017-Nov-12 15:00N 40°42' W 073°59'3 6.1
2017-Nov-12 14:30N 40°40' W 074°01'3 6.9
2017-Nov-12 14:00N 40°37' W 074°03'3 6.0
2017-Nov-12 13:30N 40°34' W 074°02'3 6.2
2017-Nov-12 13:00N 40°31' W 074°03'3 5.5
2017-Nov-12 12:30N 40°30' W 074°06'8 2.5
2017-Nov-12 09:27N 40°32' W 074°15'0 0.2
2017-Nov-12 08:56N 40°32' W 074°15'0 0.0
2017-Nov-12 08:30N 40°32' W 074°15'0 0.0
2017-Nov-12 06:29N 40°32' W 074°15'0 0.0
2017-Nov-12 05:51N 40°32' W 074°15'0 0.0
2017-Nov-12 05:26N 40°32' W 074°15'4 5.2
2017-Nov-12 04:46N 40°35' W 074°13'0 0.1
2017-Nov-12 04:30N 40°35' W 074°13'1 2.3
2017-Nov-12 04:00N 40°36' W 074°12'3 6.2
2017-Nov-12 03:30N 40°39' W 074°10'4 7.8
2017-Nov-12 03:00N 40°39' W 074°05'2 3.4
2017-Nov-12 02:30N 40°38' W 074°03'0 0.0
2017-Nov-12 02:00N 40°38' W 074°03'1 2.0
2017-Nov-12 01:30N 40°39' W 074°02'2 3.9
2017-Nov-12 01:00N 40°40' W 074°00'0 0.0
2017-Nov-12 00:30N 40°40' W 074°00'0 0.0
2017-Nov-12 00:00N 40°40' W 074°00'0 0.5
2017-Nov-11 23:30N 40°40' W 074°00'1 2.9
2017-Nov-11 23:00N 40°41' W 074°00'0 0.0
2017-Nov-11 22:30N 40°41' W 074°00'0 0.0
2017-Nov-11 22:00N 40°41' W 074°00'0 0.0
2017-Nov-11 21:30N 40°41' W 074°00'0 0.1
2017-Nov-11 21:00N 40°41' W 074°00'2 3.6
2017-Nov-11 20:30N 40°43' W 073°58'4 7.6
2017-Nov-11 20:00N 40°46' W 073°57'3 6.4
2017-Nov-11 19:30N 40°48' W 073°53'3 6.9
2017-Nov-11 19:00N 40°48' W 073°49'3 5.4
2017-Nov-11 18:29N 40°50' W 073°46'3 6.6
2017-Nov-11 17:58N 40°53' W 073°43'  
Track history (hours):
 
Tides and Currents Weather Stations Pressure Air Temp Water Temp Dewpoint Dewpoint Depression Visibility Wind Speed Wind Dir Waves Ship Positions

Kings Point

Owner: Vane Line Bunkering, Inc., Philadelphia, PA. More information available from US FCC via Universal Licensing System and Coast Guard Vessel Documentation Center.

Last reported at 2017-Nov-20 00:30 UTC. Time now 2017-Nov-20 02:01 UTC.
Position N 40°38' W 074°12'.

Length 33 m; draft 3 m.

Type: Tug. MMSI: 338329000.

Date/timePositionNaut miles runAvg speedWind from/ knotsBaromVisibWave heightAir tempDewpointWater temp
2017-Nov-20 00:30N 40°38' W 074°12'0 0.0
2017-Nov-20 00:00N 40°38' W 074°12'0 0.0
2017-Nov-19 23:30N 40°38' W 074°12'0 0.0
2017-Nov-19 23:00N 40°38' W 074°12'0 0.0
2017-Nov-19 22:30N 40°38' W 074°12'0 0.0
2017-Nov-19 21:59N 40°38' W 074°12'0 0.0
2017-Nov-19 21:30N 40°38' W 074°12'0 0.0
2017-Nov-19 20:47N 40°38' W 074°12'0 0.0
2017-Nov-19 20:30N 40°38' W 074°12'0 0.0
2017-Nov-19 19:58N 40°38' W 074°12'0 0.0
2017-Nov-19 19:30N 40°38' W 074°12'0 0.0
2017-Nov-19 19:00N 40°38' W 074°12'0 0.0
2017-Nov-19 18:30N 40°38' W 074°12'0 0.0
2017-Nov-19 18:00N 40°38' W 074°12'0 0.0
2017-Nov-19 17:30N 40°38' W 074°12'0 0.0
2017-Nov-19 17:00N 40°38' W 074°12'0 0.0
2017-Nov-19 16:30N 40°38' W 074°12'0 0.0
2017-Nov-19 16:00N 40°38' W 074°12'0 0.0
2017-Nov-19 15:30N 40°38' W 074°12'1 2.4
2017-Nov-19 15:00N 40°39' W 074°11'3 5.2
2017-Nov-19 14:30N 40°40' W 074°08'1 2.1
2017-Nov-19 14:00N 40°41' W 074°09'2 4.5
2017-Nov-19 13:30N 40°39' W 074°09'2 3.8
2017-Nov-19 13:00N 40°39' W 074°06'1 2.1
2017-Nov-19 12:30N 40°39' W 074°05'1 2.2
2017-Nov-19 12:00N 40°40' W 074°04'1 2.2
2017-Nov-19 11:30N 40°40' W 074°03'3 6.1
2017-Nov-19 11:00N 40°39' W 074°06'4 8.3
2017-Nov-19 10:30N 40°38' W 074°12'3 2.8
2017-Nov-19 09:35N 40°36' W 074°12'0 0.0
2017-Nov-19 09:30N 40°36' W 074°12'0 0.0
2017-Nov-19 08:58N 40°36' W 074°12'1 2.8
2017-Nov-19 08:30N 40°34' W 074°13'3 3.8
2017-Nov-19 07:44N 40°32' W 074°15'1 0.5
2017-Nov-19 05:19N 40°33' W 074°14'0 0.2
2017-Nov-19 05:00N 40°33' W 074°14'0 0.3
2017-Nov-19 04:29N 40°33' W 074°14'0 0.1
2017-Nov-19 01:44N 40°33' W 074°14'3 7.4
2017-Nov-19 01:23N 40°35' W 074°12'1 2.5
2017-Nov-19 01:00N 40°36' W 074°12'1 3.0
2017-Nov-19 00:30N 40°38' W 074°12'3 6.5
2017-Nov-19 00:00N 40°39' W 074°08'4 8.5
2017-Nov-18 23:30N 40°39' W 074°02'2 3.7
2017-Nov-18 23:00N 40°40' W 074°00'0 0.6
2017-Nov-18 22:30N 40°40' W 074°00'0 0.0
2017-Nov-18 22:00N 40°40' W 074°00'0 0.0
2017-Nov-18 21:30N 40°40' W 074°00'2 3.1
2017-Nov-18 21:00N 40°40' W 074°02'1 1.3
2017-Nov-18 20:30N 40°40' W 074°03'2 4.3
2017-Nov-18 20:00N 40°40' W 074°00'0 0.5
2017-Nov-18 19:30N 40°40' W 074°00'2 3.6
2017-Nov-18 19:00N 40°42' W 074°00'510.0
2017-Nov-18 18:29N 40°46' W 073°57'3 6.8
2017-Nov-18 17:59N 40°48' W 073°53'4 8.8
2017-Nov-18 17:30N 40°48' W 073°47'2 0.1
2017-Nov-17 23:51N 40°50' W 073°46'1 0.8
2017-Nov-17 21:57N 40°49' W 073°46'0 0.1
2017-Nov-17 20:57N 40°49' W 073°46'0 0.0
2017-Nov-17 19:00N 40°49' W 073°46'0 0.0
2017-Nov-17 17:36N 40°49' W 073°46'0 0.1
2017-Nov-17 17:30N 40°49' W 073°46'0 0.0
2017-Nov-17 16:51N 40°49' W 073°46'0 0.0
2017-Nov-17 15:24N 40°49' W 073°46'0 0.0
2017-Nov-17 14:03N 40°49' W 073°46'0 0.1
2017-Nov-17 13:51N 40°49' W 073°46'0 0.0
2017-Nov-17 13:21N 40°49' W 073°46'0 0.0
2017-Nov-17 12:57N 40°49' W 073°46'0 0.1
2017-Nov-17 11:27N 40°49' W 073°46'0 0.1
2017-Nov-17 10:47N 40°49' W 073°46'0 0.1
2017-Nov-17 10:30N 40°49' W 073°46'0 0.0
2017-Nov-17 10:00N 40°49' W 073°46'0 0.0
2017-Nov-17 09:25N 40°49' W 073°46'0 0.1
2017-Nov-17 08:57N 40°49' W 073°46'2 3.8
2017-Nov-17 08:30N 40°48' W 073°49'4 8.3
2017-Nov-17 08:00N 40°48' W 073°54'3 6.1
2017-Nov-17 07:30N 40°46' W 073°57'2 4.6
2017-Nov-17 07:00N 40°44' W 073°58'2 4.9
2017-Nov-17 06:30N 40°42' W 074°00'2 4.5
2017-Nov-17 06:00N 40°40' W 074°02'0 0.0
2017-Nov-17 05:30N 40°40' W 074°02'0 0.0
2017-Nov-17 05:00N 40°40' W 074°02'0 0.0
2017-Nov-17 04:30N 40°40' W 074°02'0 0.1
2017-Nov-17 04:00N 40°40' W 074°02'0 0.0
2017-Nov-17 03:30N 40°40' W 074°02'0 0.1
2017-Nov-17 03:00N 40°40' W 074°02'2 4.6
2017-Nov-17 02:30N 40°39' W 074°04'4 8.3
2017-Nov-17 02:00N 40°39' W 074°10'3 6.0
2017-Nov-17 01:30N 40°36' W 074°12'4 0.7
2017-Nov-16 19:53N 40°33' W 074°15'1 0.3
2017-Nov-16 16:42N 40°33' W 074°14'1 2.3
2017-Nov-16 16:23N 40°33' W 074°15'0 0.0
2017-Nov-16 15:59N 40°33' W 074°15'0 0.0
2017-Nov-16 15:15N 40°33' W 074°15'0 0.0
2017-Nov-16 14:52N 40°33' W 074°15'0 0.0
2017-Nov-16 14:30N 40°33' W 074°15'0 0.0
2017-Nov-16 13:51N 40°33' W 074°15'0 0.2
2017-Nov-16 13:27N 40°33' W 074°15'4 0.5
2017-Nov-16 06:47N 40°36' W 074°12'2 8.8
2017-Nov-16 06:30N 40°38' W 074°12'4 8.3
2017-Nov-16 06:00N 40°39' W 074°06'4 8.9
2017-Nov-16 05:30N 40°41' W 074°01'5 9.8
2017-Nov-16 05:00N 40°45' W 073°58'5 9.1
2017-Nov-16 04:29N 40°48' W 073°53'4 8.3
2017-Nov-16 03:57N 40°48' W 073°47'2 0.1
2017-Nov-15 01:41N 40°50' W 073°46'2 6.9
2017-Nov-15 01:28N 40°49' W 073°47'3 5.5
2017-Nov-15 01:00N 40°48' W 073°50'3 6.5
2017-Nov-15 00:30N 40°48' W 073°55'4 7.3
2017-Nov-15 00:00N 40°45' W 073°58'4 7.9
2017-Nov-14 23:30N 40°42' W 074°00'4 8.2
2017-Nov-14 23:00N 40°39' W 074°04'2 3.1
2017-Nov-14 22:30N 40°39' W 074°06'0 0.7
2017-Nov-14 22:00N 40°39' W 074°07'1 2.1
2017-Nov-14 21:30N 40°39' W 074°06'2 4.9
2017-Nov-14 21:00N 40°40' W 074°03'2 3.4
2017-Nov-14 20:30N 40°40' W 074°01'1 1.1
2017-Nov-14 20:00N 40°40' W 074°00'0 0.0
2017-Nov-14 19:30N 40°40' W 074°00'0 0.0
2017-Nov-14 19:00N 40°40' W 074°00'0 0.0
2017-Nov-14 18:30N 40°40' W 074°00'0 0.0
2017-Nov-14 18:00N 40°40' W 074°00'0 0.0
2017-Nov-14 17:30N 40°40' W 074°00'0 0.0
2017-Nov-14 17:00N 40°40' W 074°00'0 0.0
2017-Nov-14 16:30N 40°40' W 074°00'0 0.1
2017-Nov-14 16:00N 40°40' W 074°00'0 0.5
2017-Nov-14 15:30N 40°40' W 074°00'2 3.9
2017-Nov-14 15:00N 40°39' W 074°03'2 4.7
2017-Nov-14 14:30N 40°40' W 074°05'0 0.0
2017-Nov-14 14:00N 40°40' W 074°05'0 0.0
2017-Nov-14 13:30N 40°40' W 074°05'0 0.0
2017-Nov-14 13:00N 40°40' W 074°05'0 0.0
2017-Nov-14 12:30N 40°40' W 074°05'0 0.0
2017-Nov-14 12:00N 40°40' W 074°05'0 0.0
2017-Nov-14 11:30N 40°40' W 074°05'0 0.0
2017-Nov-14 11:00N 40°40' W 074°05'0 0.0
2017-Nov-14 10:30N 40°40' W 074°05'1 2.1
2017-Nov-14 10:00N 40°39' W 074°04'2 3.5
2017-Nov-14 09:30N 40°39' W 074°06'0 0.9
2017-Nov-14 09:00N 40°39' W 074°06'3 5.3
2017-Nov-14 08:30N 40°40' W 074°03'1 2.7
2017-Nov-14 08:00N 40°40' W 074°01'1 1.2
2017-Nov-14 07:30N 40°40' W 074°00'0 0.0
2017-Nov-14 07:00N 40°40' W 074°00'0 0.8
2017-Nov-14 06:30N 40°40' W 074°01'1 1.3
2017-Nov-14 06:00N 40°40' W 074°00'0 0.0
2017-Nov-14 05:30N 40°40' W 074°00'1 1.4
2017-Nov-14 05:00N 40°40' W 074°01'2 3.9
2017-Nov-14 04:30N 40°39' W 074°03'3 5.1
2017-Nov-14 04:00N 40°39' W 074°07'2 4.8
2017-Nov-14 03:30N 40°40' W 074°04'0 0.9
2017-Nov-14 03:00N 40°40' W 074°04'4 7.0
2017-Nov-14 02:30N 40°40' W 074°09'0 0.2
2017-Nov-14 02:00N 40°40' W 074°09'2 3.1
2017-Nov-14 01:30N 40°41' W 074°09'0 0.0
2017-Nov-14 01:00N 40°41' W 074°09'0 0.0
2017-Nov-14 00:30N 40°41' W 074°09'0 0.0
2017-Nov-14 00:00N 40°41' W 074°09'0 0.0
2017-Nov-13 23:29N 40°41' W 074°09'0 0.0
2017-Nov-13 23:00N 40°41' W 074°09'1 1.0
2017-Nov-13 22:29N 40°41' W 074°09'2 5.0
2017-Nov-13 22:00N 40°39' W 074°08'18 0.6
2017-Nov-12 16:40N 40°48' W 073°48'1 8.0
2017-Nov-12 16:30N 40°48' W 073°50'4 6.7
2017-Nov-12 15:57N 40°47' W 073°55'3 5.9
2017-Nov-12 15:30N 40°45' W 073°57'3 6.4
2017-Nov-12 15:00N 40°42' W 073°59'3 6.1
2017-Nov-12 14:30N 40°40' W 074°01'3 6.9
2017-Nov-12 14:00N 40°37' W 074°03'3 6.0
2017-Nov-12 13:30N 40°34' W 074°02'3 6.2
2017-Nov-12 13:00N 40°31' W 074°03'3 5.5
2017-Nov-12 12:30N 40°30' W 074°06'8 2.5
2017-Nov-12 09:27N 40°32' W 074°15'0 0.2
2017-Nov-12 08:56N 40°32' W 074°15'0 0.0
2017-Nov-12 08:30N 40°32' W 074°15'0 0.0
2017-Nov-12 06:29N 40°32' W 074°15'0 0.0
2017-Nov-12 05:51N 40°32' W 074°15'0 0.0
2017-Nov-12 05:26N 40°32' W 074°15'4 5.2
2017-Nov-12 04:46N 40°35' W 074°13'0 0.1
2017-Nov-12 04:30N 40°35' W 074°13'1 2.3
2017-Nov-12 04:00N 40°36' W 074°12'3 6.2
2017-Nov-12 03:30N 40°39' W 074°10'4 7.8
2017-Nov-12 03:00N 40°39' W 074°05'2 3.4
2017-Nov-12 02:30N 40°38' W 074°03'0 0.0
2017-Nov-12 02:00N 40°38' W 074°03'1 2.0
2017-Nov-12 01:30N 40°39' W 074°02'2 3.9
2017-Nov-12 01:00N 40°40' W 074°00'0 0.0
2017-Nov-12 00:30N 40°40' W 074°00'0 0.0
2017-Nov-12 00:00N 40°40' W 074°00'0 0.5
2017-Nov-11 23:30N 40°40' W 074°00'1 2.9
2017-Nov-11 23:00N 40°41' W 074°00'0 0.0
2017-Nov-11 22:30N 40°41' W 074°00'0 0.0
2017-Nov-11 22:00N 40°41' W 074°00'0 0.0
2017-Nov-11 21:30N 40°41' W 074°00'0 0.1
2017-Nov-11 21:00N 40°41' W 074°00'2 3.6
2017-Nov-11 20:30N 40°43' W 073°58'4 7.6
2017-Nov-11 20:00N 40°46' W 073°57'3 6.4
2017-Nov-11 19:30N 40°48' W 073°53'3 6.9
2017-Nov-11 19:00N 40°48' W 073°49'3 5.4
2017-Nov-11 18:29N 40°50' W 073°46'3 6.6
2017-Nov-11 17:58N 40°53' W 073°43'  

Dump ship's entire track history